Latest Weather Observations for Norfolk Island

IDN60801

Issued at 7:05 pm EST Monday 15 September 2014 (issued every 30 minutes, with the page automatically refreshed every 10 minutes)

About weather observations | Map of weather stations | Latest weather observations for NSW | Other Formats
Station Details ID: 200288 Name: NORFOLK ISLAND AERO Lat: -29.04 Lon: 167.94 Height: 111.73 m
Data from the previous 72 hours. | See also: Recent months at Norfolk Island
Date/Time
EST
Temp
°C
App
Temp
°C
Dew
Point
Rel
Hum
%
Delta-T
°C
Wind Press
QNH
hPa
Press
MSL
hPa
Rain
since 9 am
mm
Dir
 
Spd
km/h
Gust
km/h
Spd
kts
Gust
kts
15/07:00pm 14.7 14.6 9.5 71 2.7 ESE 0 0 0 0 1020.1 - 0.0
15/06:30pm 15.4 14.9 7.8 60 3.8 SE 0 0 0 0 1020.0 - 0.0
15/06:00pm 15.2 14.7 8.0 62 3.6 CALM 0 0 0 0 1019.7 - 0.0
15/05:30pm 15.4 15.0 8.1 61 3.7 CALM 0 0 0 0 1019.5 - 0.0
15/05:00pm 15.4 15.2 9.2 66 3.2 CALM 0 0 0 0 1019.4 - 0.0
15/04:30pm 15.7 15.2 8.0 60 3.9 CALM 0 0 0 0 1019.2 1019.1 0.0
15/04:00pm 15.9 14.1 8.0 59 4.0 SE 7 9 4 5 1019.0 - 0.0
15/03:30pm 16.3 14.1 7.8 57 4.3 SSE 9 13 5 7 1018.6 - 0.0
15/03:00pm 16.6 14.3 7.4 54 4.6 SSE 9 17 5 9 1018.4 - 0.0
15/02:30pm 16.6 14.1 6.7 52 4.9 S 9 13 5 7 1018.5 - 0.0
15/02:00pm 17.0 14.0 7.5 53 4.8 SSE 13 17 7 9 1018.4 - 0.0
15/01:30pm 16.9 13.8 7.3 53 4.8 SE 13 19 7 10 1018.4 1018.3 0.0
15/01:00pm 17.0 13.8 6.7 50 5.1 S 13 15 7 8 1018.4 - 0.0
15/12:30pm 17.3 13.7 6.6 49 5.3 SSW 15 19 8 10 1018.9 - 0.0
15/12:00pm 17.4 14.2 6.7 49 5.3 SSW 13 19 7 10 1019.3 - 0.0
15/11:30am 17.7 14.6 7.1 50 5.3 S 13 17 7 9 1019.7 - 0.0
15/11:00am 17.1 13.8 6.6 50 5.2 S 13 17 7 9 1020.0 - 0.0
15/10:30am 16.9 13.6 6.3 49 5.2 SSW 13 20 7 11 1020.4 1020.3 0.0
15/10:00am 16.8 13.6 6.7 51 5.0 S 13 17 7 9 1020.8 - 0.0
15/09:30am 16.6 13.8 6.9 52 4.8 SW 11 15 6 8 1021.1 - 0.0
15/09:00am 16.0 13.1 6.6 53 4.6 SSW 11 13 6 7 1021.3 - 0.0
15/08:30am 15.0 12.9 8.4 64 3.3 SW 9 15 5 8 1021.3 - 0.0
15/08:00am 16.9 15.0 7.6 54 4.7 SSW 7 11 4 6 1021.2 - 0.0
15/07:30am 16.7 14.7 8.5 58 4.2 S 9 11 5 6 1021.3 1021.2 0.0
15/07:00am 16.8 15.1 8.2 57 4.4 E 7 11 4 6 1021.0 - 0.0
15/06:30am 16.9 16.3 7.3 53 4.8 CALM 0 0 0 0 1020.9 - 0.0
15/06:00am 15.4 14.9 8.0 61 3.7 CALM 0 0 0 0 1020.8 - 0.0
15/05:30am 14.5 13.6 6.2 57 4.0 CALM 0 0 0 0 1020.3 - 0.0
15/05:00am 13.9 13.3 7.2 64 3.3 CALM 0 0 0 0 1019.9 - 0.0
15/04:30am 13.7 12.9 6.7 62 3.4 CALM 0 0 0 0 1020.0 1019.9 0.0
15/04:00am 14.2 13.1 5.3 55 4.2 CALM 0 0 0 0 1019.3 - 0.0
15/03:30am 13.6 12.5 5.3 57 3.9 CALM 0 0 0 0 1019.1 - 0.0
15/03:00am 13.4 12.4 5.5 59 3.7 CALM 0 0 0 0 1018.9 - 0.0
15/02:30am 13.7 12.4 6.2 60 3.6 S 2 7 1 4 1018.9 - 0.0
15/02:00am 14.4 13.7 7.1 61 3.6 CALM 0 0 0 0 1019.3 - 0.0
15/01:30am 14.3 13.5 6.7 60 3.7 CALM 0 0 0 0 1019.3 1019.2 0.0
15/01:00am 14.8 12.8 6.1 56 4.2 SE 6 11 3 6 1019.7 - 0.0
15/12:30am 14.7 13.9 8.1 64 3.3 SSE 2 6 1 3 1019.9 - 0.0
15/12:00am 14.8 13.2 7.8 63 3.5 SSE 6 7 3 4 1020.3 - 0.0
 
Date/Time
EST
Temp
°C
App
Temp
°C
Dew
Point
Rel
Hum
%
Delta-T
°C
Wind Press
QNH
hPa
Press
MSL
hPa
Rain
since 9 am
mm
Dir
 
Spd
km/h
Gust
km/h
Spd
kts
Gust
kts
14/11:30pm 14.3 13.8 7.9 65 3.2 CALM 0 7 0 4 1020.6 - 0.0
14/11:00pm 14.9 12.9 6.9 58 3.9 S 7 9 4 5 1020.8 - 0.0
14/10:30pm 14.3 12.4 7.6 64 3.3 S 7 9 4 5 1021.2 1021.1 0.0
14/10:00pm 13.9 11.4 6.7 62 3.5 S 9 11 5 6 1021.2 - 0.0
14/09:30pm 14.1 11.5 5.9 57 3.9 S 9 11 5 6 1021.3 - 0.0
14/09:00pm 13.6 10.6 6.0 60 3.6 S 11 13 6 7 1021.4 - 0.0
14/08:30pm 14.1 11.4 5.4 56 4.1 S 9 11 5 6 1021.4 - 0.0
14/08:00pm 14.7 11.2 5.4 53 4.4 S 13 17 7 9 1021.4 - 0.0
14/07:30pm 14.8 12.0 7.1 60 3.8 S 11 15 6 8 1021.4 1021.3 0.0
14/07:00pm 15.1 12.1 7.9 62 3.6 S 13 19 7 10 1021.2 - 0.0
14/06:30pm 15.3 12.5 8.4 63 3.5 SSE 13 17 7 9 1020.9 - 0.0
14/06:00pm 15.3 13.2 8.2 62 3.6 SSE 9 13 5 7 1020.7 - 0.0
14/05:30pm 15.3 12.7 7.7 60 3.8 S 11 17 6 9 1020.3 - 0.0
14/05:00pm 15.3 12.3 7.5 59 3.9 S 13 19 7 10 1020.1 - 0.0
14/04:30pm 15.4 12.0 7.6 59 3.9 S 15 20 8 11 1019.8 1019.7 0.0
14/04:00pm 15.8 12.0 7.6 58 4.1 S 17 22 9 12 1019.8 - 0.0
14/03:30pm 16.0 12.5 7.4 56 4.3 S 15 22 8 12 1019.8 - 0.0
14/03:00pm 16.6 12.8 7.4 54 4.6 S 17 22 9 12 1019.6 - 0.0
14/02:30pm 16.5 13.1 7.5 55 4.5 S 15 19 8 10 1019.5 - 0.0
14/02:00pm 16.8 13.0 8.9 59 4.1 S 19 26 10 14 1019.4 - 0.0
14/01:30pm 17.4 12.8 5.4 45 5.8 S 19 26 10 14 1019.1 1019.0 0.0
14/01:00pm 17.5 12.9 5.6 45 5.8 S 19 24 10 13 1019.3 - 0.0
14/12:30pm 16.9 12.7 5.5 47 5.5 S 17 26 9 14 1019.9 - 0.0
14/12:00pm 17.6 13.1 7.0 50 5.3 S 20 30 11 16 1019.9 - 0.0
14/11:30am 17.0 13.1 7.0 51 5.0 S 17 26 9 14 1020.6 - 0.0
14/11:00am 17.5 13.7 7.4 51 5.1 SSE 17 28 9 15 1020.7 - 0.0
14/10:30am 16.8 12.2 5.4 47 5.5 S 19 28 10 15 1021.1 1021.0 0.0
14/10:00am 16.9 13.0 5.2 46 5.6 S 15 20 8 11 1021.7 - 0.0
14/09:30am 17.3 13.2 6.1 47 5.5 S 17 26 9 14 1022.0 - 0.0
14/09:00am 17.2 13.0 5.9 47 5.5 S 17 32 9 17 1021.9 - 0.0
14/08:30am 16.8 12.4 4.8 45 5.7 S 17 22 9 12 1022.1 - 0.0
14/08:00am 16.3 12.1 5.7 49 5.1 S 17 22 9 12 1022.1 - 0.0
14/07:30am 15.8 11.7 6.1 52 4.7 S 17 20 9 11 1022.1 1022.0 0.0
14/07:00am 15.8 12.2 6.6 54 4.5 S 15 22 8 12 1021.9 - 0.0
14/06:30am 15.4 11.7 6.1 54 4.5 S 15 24 8 13 1021.5 - 0.0
14/06:00am 15.1 11.6 7.0 58 4.0 SSE 15 24 8 13 1021.5 - 0.0
14/05:30am 15.0 11.1 7.1 59 3.9 S 17 20 9 11 1021.2 - 0.0
14/05:00am 14.7 11.3 7.7 63 3.5 S 15 19 8 10 1020.9 - 0.0
14/04:30am 14.5 11.1 9.0 69 2.8 S 17 26 9 14 1020.8 1020.7 0.0
14/04:00am 14.1 11.5 9.4 73 2.4 SSW 13 20 7 11 1020.6 - 0.0
14/03:30am 14.2 11.5 7.5 64 3.3 SW 11 17 6 9 1020.9 - 0.0
14/03:00am 13.9 11.1 6.9 62 3.4 SW 11 15 6 8 1020.9 - 0.0
14/02:30am 13.8 10.8 6.0 59 3.7 S 11 15 6 8 1020.8 - 0.0
14/02:00am 14.8 11.4 6.1 56 4.2 SSW 13 19 7 10 1020.8 - 0.0
14/01:30am 14.5 10.2 5.2 53 4.4 S 17 30 9 16 1020.3 1020.2 0.0
14/01:00am 14.3 10.8 5.4 55 4.2 S 13 24 7 13 1020.5 - 0.0
14/12:30am 14.3 9.9 4.9 53 4.4 S 17 22 9 12 1021.2 - 0.0
14/12:00am 14.4 10.0 4.8 52 4.5 S 17 22 9 12 1021.4 - 0.0
 
Date/Time
EST
Temp
°C
App
Temp
°C
Dew
Point
Rel
Hum
%
Delta-T
°C
Wind Press
QNH
hPa
Press
MSL
hPa
Rain
since 9 am
mm
Dir
 
Spd
km/h
Gust
km/h
Spd
kts
Gust
kts
13/11:30pm 14.4 10.0 4.8 52 4.5 S 17 24 9 13 1021.7 - 0.0
13/11:00pm 14.5 10.2 5.2 53 4.4 S 17 22 9 12 1021.8 - 0.0
13/10:30pm 14.4 9.5 5.3 54 4.3 S 20 32 11 17 1021.7 1021.6 0.0
13/10:00pm 15.0 11.0 6.8 58 4.0 S 17 22 9 12 1021.7 - 0.0
13/09:30pm 14.9 11.3 6.7 58 4.0 S 15 26 8 14 1021.7 - 0.0
13/09:00pm 15.3 11.4 7.0 57 4.1 S 17 28 9 15 1021.7 - 0.0
13/08:30pm 15.2 12.3 8.0 62 3.6 S 13 26 7 14 1021.7 - 0.0
13/08:00pm 14.5 11.4 7.2 61 3.6 S 13 19 7 10 1021.7 - 0.0
13/07:30pm 14.7 11.0 6.4 57 4.0 S 15 20 8 11 1021.7 1021.6 0.0
13/07:00pm 14.7 10.5 5.7 55 4.3 S 17 24 9 13 1021.6 - 0.0
13/06:30pm 14.8 10.1 5.0 52 4.6 S 19 28 10 15 1021.3 - 0.0
13/06:00pm 15.1 10.2 6.7 57 4.1 S 22 30 12 16 1021.0 - 0.0
13/05:30pm 15.5 10.5 7.9 60 3.8 S 24 33 13 18 1020.8 - 0.0
13/05:00pm 15.5 11.1 9.1 65 3.3 S 22 32 12 17 1020.5 - 0.0
13/04:30pm 15.6 11.2 8.8 64 3.5 S 22 33 12 18 1020.2 1020.1 0.0
13/04:00pm 16.4 11.4 8.1 58 4.2 S 24 35 13 19 1020.1 - 0.0
13/03:30pm 16.8 11.1 6.9 52 4.9 SSW 26 37 14 20 1019.9 - 0.0
13/03:00pm 16.9 11.0 7.3 53 4.8 SSW 28 37 15 20 1019.7 - 0.0
13/02:30pm 17.2 11.9 7.0 51 5.1 SSW 24 35 13 19 1019.7 - 0.0
13/02:00pm 17.5 11.4 6.4 48 5.5 SSW 28 37 15 20 1019.7 - 0.0
13/01:30pm 17.6 11.6 5.4 44 5.9 SSW 26 37 14 20 1019.7 1019.6 0.0
13/01:00pm 17.9 12.0 7.7 51 5.2 SSW 28 35 15 19 1019.8 - 0.0
13/12:30pm 17.9 11.8 6.4 47 5.7 SSW 28 35 15 19 1020.0 - 0.0
13/12:00pm 18.1 12.1 8.7 54 4.9 SSW 30 39 16 21 1020.2 - 0.0
13/11:30am 18.2 13.2 10.8 62 4.0 S 28 39 15 21 1020.0 - 0.0
13/11:00am 18.6 14.2 8.8 53 5.1 SSW 22 33 12 18 1020.2 - 0.0
13/10:30am 17.5 12.3 9.0 57 4.4 SSW 26 39 14 21 1020.5 1020.4 0.0
13/10:00am 18.0 12.7 9.7 58 4.4 SSW 28 39 15 21 1020.8 - 0.0
13/09:30am 17.3 11.6 8.3 55 4.6 SW 28 41 15 22 1020.9 - 0.0
13/09:00am 18.0 12.5 9.2 56 4.6 SSW 28 39 15 21 1020.8 - 0.0
13/08:30am 17.9 12.9 9.5 58 4.4 SSW 26 35 14 19 1020.8 - 0.0
13/08:00am 17.5 12.7 9.0 57 4.4 SW 24 37 13 20 1020.6 - 0.0
13/07:30am 17.2 12.0 8.7 57 4.4 SW 26 35 14 19 1020.3 1020.2 0.0
13/07:00am 16.8 11.8 9.5 62 3.8 SSW 26 41 14 22 1020.0 - 0.0
13/06:30am 16.3 10.8 10.7 69 3.0 SW 30 41 16 22 1019.8 - 0.0
13/06:00am 16.6 11.8 10.4 67 3.3 SW 26 33 14 18 1019.5 - 0.0
13/05:30am 16.1 12.1 10.4 69 3.0 SW 22 37 12 20 1019.3 - 0.0
13/05:00am 16.0 12.2 11.2 73 2.6 SW 22 30 12 16 1019.1 - 0.0
13/04:30am 16.2 12.4 11.0 71 2.8 SW 22 30 12 16 1019.0 1018.9 0.0
13/04:00am 16.0 12.2 11.2 73 2.6 SW 22 32 12 17 1018.8 - 0.0
13/03:30am 16.3 12.9 12.5 78 2.1 SW 22 33 12 18 1018.6 - 0.0
13/03:00am 16.6 13.2 12.6 77 2.2 WSW 22 32 12 17 1018.2 - 0.0
13/02:30am 16.4 13.5 12.8 79 2.0 WSW 20 28 11 15 1018.2 - 0.0
13/02:00am 16.2 13.2 12.6 79 2.0 WSW 20 33 11 18 1018.1 - 0.0
13/01:30am 16.3 13.1 11.9 75 2.4 WSW 20 30 11 16 1018.2 1018.1 0.0
13/01:00am 16.2 13.3 12.4 78 2.1 WSW 19 26 10 14 1018.3 - 0.0
13/12:30am 16.2 13.5 12.8 80 1.9 WSW 19 28 10 15 1018.5 - 0.0
13/12:00am 16.3 13.2 12.3 77 2.2 WSW 20 30 11 16 1018.8 - 0.0
 
Date/Time
EST
Temp
°C
App
Temp
°C
Dew
Point
Rel
Hum
%
Delta-T
°C
Wind Press
QNH
hPa
Press
MSL
hPa
Rain
since 9 am
mm
Dir
 
Spd
km/h
Gust
km/h
Spd
kts
Gust
kts
12/11:30pm 16.5 12.8 12.7 78 2.1 WSW 24 33 13 18 1019.1 - 0.0
12/11:00pm 16.4 13.5 13.0 80 1.9 WSW 20 28 11 15 1019.2 - 0.0
12/10:30pm 16.4 13.1 12.8 79 2.0 WSW 22 32 12 17 1019.1 1019.0 0.0
12/10:00pm 17.0 13.5 13.3 79 2.1 WSW 24 33 13 18 1019.1 - 0.0
12/09:30pm 16.6 13.7 13.0 79 2.0 WSW 20 28 11 15 1019.1 - 0.0
12/09:00pm 16.9 13.8 13.3 79 2.0 WSW 22 32 12 17 1019.2 - 0.0
12/08:30pm 16.9 13.8 13.5 80 1.9 WSW 22 32 12 17 1019.0 - 0.0
12/08:00pm 16.8 13.7 13.4 80 1.9 WSW 22 30 12 16 1019.0 - 0.0
12/07:30pm 16.9 14.7 14.3 85 1.5 WSW 19 28 10 15 1018.7 1018.6 0.0
12/07:00pm 16.9 14.4 13.4 80 2.0 WSW 19 28 10 15 1018.6 - 0.0
12/06:30pm 16.9 14.4 13.5 80 1.9 WSW 19 26 10 14 1018.4 - 0.0
12/06:00pm 16.9 14.2 13.5 80 1.9 WSW 20 30 11 16 1018.2 - 0.0

Other Formats:

Comma delimited format used in spreadsheet applications
http://www.bom.gov.au/fwo/IDN60801/IDN60801.94996.axf

JavaScript Object Notation format (JSON) in row-major order
http://www.bom.gov.au/fwo/IDN60801/IDN60801.94996.json